PWSweather.com
Personal Weather Stations
Station Observations
SUBOTICARS
SuboticaYU

SuboticaYU

Lat: 46.1296717, Lon: 19.641551

Elevation: 361

Station Type: Nexus

http://sumeteo.info

High Low Average
Temperature 29.1°F-1.6°C 24.8°F-4.0°C 26.9°F-2.8°C
Dew Point 24.2°F-4.3°C 15.8°F-9.0°C 20.3°F-6.5°C
Winds 10.4 mph 16.7 kmh 2.3 mph 3.7 kmh 6.0 mph W9.7 kmh W
Wind Gusts 13.8 mph22.2 kmh 3.5 mph5.6 kmh 8.0 mph12.9 kmh
Humidity 88% 64% 76%
Pressure 29.48 in998.3 mb 29.36 in994.2 mb -
Precipitation 0.00 in0.0 mm - -
Hour Temp Dew Point Humidity Winds Wind Gusts Pressure Precip Precip Rate Daily Precip Total
12:00 AM 27.3°F-2.6°C 24.2°F-4.3°C 88% 6.9 mph NNW11.1 kmh NNW 8.1 mph13.0 kmh 29.36 in994.2 mb - 0.00 in0.0 mm 0.00 in0.0 mm
12:10 AM 27.1°F-2.7°C 23.8°F-4.6°C 87% 5.8 mph NNW9.3 kmh NNW 8.1 mph13.0 kmh 29.36 in994.2 mb - 0.00 in0.0 mm 0.00 in0.0 mm
12:15 AM 27.1°F-2.7°C 23.8°F-4.6°C 87% 4.6 mph NW7.4 kmh NW 4.6 mph7.4 kmh 29.36 in994.2 mb - 0.00 in0.0 mm 0.00 in0.0 mm
12:20 AM 27.0°F-2.8°C 23.6°F-4.7°C 87% 3.5 mph NW5.6 kmh NW 5.8 mph9.3 kmh 29.36 in994.2 mb - 0.00 in0.0 mm 0.00 in0.0 mm
12:25 AM 27.0°F-2.8°C 23.6°F-4.7°C 87% 3.5 mph NNW5.6 kmh NNW 3.5 mph5.6 kmh 29.36 in994.2 mb - 0.00 in0.0 mm 0.00 in0.0 mm
12:30 AM 27.0°F-2.8°C 23.6°F-4.7°C 87% 4.6 mph NNW7.4 kmh NNW 6.9 mph11.1 kmh 29.36 in994.2 mb - 0.00 in0.0 mm 0.00 in0.0 mm
12:35 AM 26.8°F-2.9°C 23.2°F-4.9°C 86% 5.8 mph NNW9.3 kmh NNW 6.9 mph11.1 kmh 29.36 in994.2 mb - 0.00 in0.0 mm 0.00 in0.0 mm
12:40 AM 26.8°F-2.9°C 23.2°F-4.9°C 86% 5.8 mph NNW9.3 kmh NNW 8.1 mph13.0 kmh 29.36 in994.2 mb - 0.00 in0.0 mm 0.00 in0.0 mm
12:45 AM 26.6°F-3.0°C 23.0°F-5.0°C 86% 5.8 mph NNW9.3 kmh NNW 6.9 mph11.1 kmh 29.36 in994.2 mb - 0.00 in0.0 mm 0.00 in0.0 mm
12:50 AM 26.6°F-3.0°C 23.0°F-5.0°C 86% 4.6 mph NNW7.4 kmh NNW 4.6 mph7.4 kmh 29.36 in994.2 mb - 0.00 in0.0 mm 0.00 in0.0 mm
12:55 AM 26.6°F-3.0°C 23.0°F-5.0°C 86% 5.8 mph NNW9.3 kmh NNW 4.6 mph7.4 kmh 29.36 in994.2 mb - 0.00 in0.0 mm 0.00 in0.0 mm
01:00 AM 26.6°F-3.0°C 23.0°F-5.0°C 86% 4.6 mph NNW7.4 kmh NNW 4.6 mph7.4 kmh 29.36 in994.2 mb - 0.00 in0.0 mm 0.00 in0.0 mm
01:10 AM 26.6°F-3.0°C 23.0°F-5.0°C 86% 4.6 mph NW7.4 kmh NW 5.8 mph9.3 kmh 29.36 in994.2 mb - 0.00 in0.0 mm 0.00 in0.0 mm
01:15 AM 26.5°F-3.1°C 22.8°F-5.1°C 86% 5.8 mph N9.3 kmh N 8.1 mph13.0 kmh 29.37 in994.6 mb - 0.00 in0.0 mm 0.00 in0.0 mm
01:20 AM 26.6°F-3.0°C 23.0°F-5.0°C 86% 4.6 mph NNW7.4 kmh NNW 4.6 mph7.4 kmh 29.37 in994.6 mb - 0.00 in0.0 mm 0.00 in0.0 mm
01:25 AM 26.4°F-3.1°C 22.8°F-5.1°C 86% 4.6 mph NNW7.4 kmh NNW 5.8 mph9.3 kmh 29.37 in994.6 mb - 0.00 in0.0 mm 0.00 in0.0 mm
01:30 AM 26.4°F-3.1°C 22.8°F-5.1°C 86% 4.6 mph NNW7.4 kmh NNW 8.1 mph13.0 kmh 29.37 in994.6 mb - 0.00 in0.0 mm 0.00 in0.0 mm
01:35 AM 26.4°F-3.1°C 22.8°F-5.1°C 86% 4.6 mph NW7.4 kmh NW 6.9 mph11.1 kmh 29.37 in994.6 mb - 0.00 in0.0 mm 0.00 in0.0 mm
01:40 AM 26.4°F-3.1°C 22.8°F-5.1°C 86% 5.8 mph NW9.3 kmh NW 6.9 mph11.1 kmh 29.37 in994.6 mb - 0.00 in0.0 mm 0.00 in0.0 mm
01:45 AM 26.2°F-3.2°C 22.6°F-5.2°C 86% 4.6 mph NNW7.4 kmh NNW 5.8 mph9.3 kmh 29.38 in994.9 mb - 0.00 in0.0 mm 0.00 in0.0 mm
01:50 AM 26.2°F-3.2°C 22.6°F-5.2°C 86% 5.8 mph NNW9.3 kmh NNW 5.8 mph9.3 kmh 29.38 in994.9 mb - 0.00 in0.0 mm 0.00 in0.0 mm
01:55 AM 26.2°F-3.2°C 22.6°F-5.2°C 86% 6.9 mph NNW11.1 kmh NNW 10.4 mph16.7 kmh 29.38 in994.9 mb - 0.00 in0.0 mm 0.00 in0.0 mm
02:00 AM 26.2°F-3.2°C 22.6°F-5.2°C 86% 5.8 mph NNW9.3 kmh NNW 6.9 mph11.1 kmh 29.38 in994.9 mb - 0.00 in0.0 mm 0.00 in0.0 mm
02:10 AM 26.1°F-3.3°C 22.4°F-5.3°C 86% 4.6 mph NW7.4 kmh NW 3.5 mph5.6 kmh 29.38 in994.9 mb - 0.00 in0.0 mm 0.00 in0.0 mm
02:15 AM 26.1°F-3.3°C 22.4°F-5.3°C 86% 4.6 mph N7.4 kmh N 4.6 mph7.4 kmh 29.38 in994.9 mb - 0.00 in0.0 mm 0.00 in0.0 mm
02:20 AM 26.1°F-3.3°C 22.4°F-5.3°C 86% 4.6 mph NNW7.4 kmh NNW 5.8 mph9.3 kmh 29.38 in994.9 mb - 0.00 in0.0 mm 0.00 in0.0 mm
02:25 AM 26.1°F-3.3°C 22.4°F-5.3°C 86% 4.6 mph NNW7.4 kmh NNW 5.8 mph9.3 kmh 29.38 in994.9 mb - 0.00 in0.0 mm 0.00 in0.0 mm
02:30 AM 25.9°F-3.4°C 22.3°F-5.4°C 86% 4.6 mph N7.4 kmh N 5.8 mph9.3 kmh 29.39 in995.3 mb - 0.00 in0.0 mm 0.00 in0.0 mm
02:35 AM 25.9°F-3.4°C 22.3°F-5.4°C 86% 5.8 mph N9.3 kmh N 5.8 mph9.3 kmh 29.39 in995.3 mb - 0.00 in0.0 mm 0.00 in0.0 mm
02:40 AM 25.9°F-3.4°C 22.3°F-5.4°C 86% 5.8 mph NNW9.3 kmh NNW 6.9 mph11.1 kmh 29.39 in995.3 mb - 0.00 in0.0 mm 0.00 in0.0 mm
02:45 AM 25.7°F-3.5°C 22.1°F-5.5°C 86% 5.8 mph NNW9.3 kmh NNW 8.1 mph13.0 kmh 29.39 in995.3 mb - 0.00 in0.0 mm 0.00 in0.0 mm
02:50 AM 25.7°F-3.5°C 22.1°F-5.5°C 86% 5.8 mph NW9.3 kmh NW 8.1 mph13.0 kmh 29.39 in995.3 mb - 0.00 in0.0 mm 0.00 in0.0 mm
02:55 AM 25.7°F-3.5°C 22.1°F-5.5°C 86% 5.8 mph NNW9.3 kmh NNW 8.1 mph13.0 kmh 29.39 in995.3 mb - 0.00 in0.0 mm 0.00 in0.0 mm
03:00 AM 25.7°F-3.5°C 22.1°F-5.5°C 86% 4.6 mph NW7.4 kmh NW 4.6 mph7.4 kmh 29.39 in995.3 mb - 0.00 in0.0 mm 0.00 in0.0 mm
03:10 AM 25.7°F-3.5°C 22.1°F-5.5°C 86% 5.8 mph NW9.3 kmh NW 5.8 mph9.3 kmh 29.39 in995.3 mb - 0.00 in0.0 mm 0.00 in0.0 mm
03:15 AM 25.5°F-3.6°C 21.9°F-5.6°C 86% 5.8 mph NNW9.3 kmh NNW 5.8 mph9.3 kmh 29.38 in994.9 mb - 0.00 in0.0 mm 0.00 in0.0 mm
03:20 AM 25.5°F-3.6°C 21.9°F-5.6°C 86% 5.8 mph N9.3 kmh N 5.8 mph9.3 kmh 29.38 in994.9 mb - 0.00 in0.0 mm 0.00 in0.0 mm
03:25 AM 25.5°F-3.6°C 21.9°F-5.6°C 86% 4.6 mph NW7.4 kmh NW 5.8 mph9.3 kmh 29.38 in994.9 mb - 0.00 in0.0 mm 0.00 in0.0 mm
03:30 AM 25.5°F-3.6°C 21.9°F-5.6°C 86% 6.9 mph NNW11.1 kmh NNW 8.1 mph13.0 kmh 29.39 in995.3 mb - 0.00 in0.0 mm 0.00 in0.0 mm
03:35 AM 25.5°F-3.6°C 21.9°F-5.6°C 86% 5.8 mph NNW9.3 kmh NNW 4.6 mph7.4 kmh 29.39 in995.3 mb - 0.00 in0.0 mm 0.00 in0.0 mm
03:40 AM 25.5°F-3.6°C 21.9°F-5.6°C 86% 5.8 mph NNW9.3 kmh NNW 5.8 mph9.3 kmh 29.39 in995.3 mb - 0.00 in0.0 mm 0.00 in0.0 mm
03:45 AM 25.4°F-3.7°C 21.8°F-5.7°C 86% 5.8 mph N9.3 kmh N 5.8 mph9.3 kmh 29.39 in995.3 mb - 0.00 in0.0 mm 0.00 in0.0 mm
03:50 AM 25.3°F-3.7°C 21.7°F-5.7°C 86% 5.8 mph NNW9.3 kmh NNW 6.9 mph11.1 kmh 29.39 in995.3 mb - 0.00 in0.0 mm 0.00 in0.0 mm
03:55 AM 25.3°F-3.7°C 21.7°F-5.7°C 86% 4.6 mph NNW7.4 kmh NNW 3.5 mph5.6 kmh 29.39 in995.3 mb - 0.00 in0.0 mm 0.00 in0.0 mm
04:00 AM 25.3°F-3.7°C 21.7°F-5.7°C 86% 4.6 mph NW7.4 kmh NW 5.8 mph9.3 kmh 29.38 in994.9 mb - 0.00 in0.0 mm 0.00 in0.0 mm
04:10 AM 25.3°F-3.7°C 21.7°F-5.7°C 86% 4.6 mph N7.4 kmh N 6.9 mph11.1 kmh 29.38 in994.9 mb - 0.00 in0.0 mm 0.00 in0.0 mm
04:15 AM 25.2°F-3.8°C 21.6°F-5.8°C 86% 4.6 mph NW7.4 kmh NW 4.6 mph7.4 kmh 29.40 in995.6 mb - 0.00 in0.0 mm 0.00 in0.0 mm
04:20 AM 25.2°F-3.8°C 21.6°F-5.8°C 86% 4.6 mph N7.4 kmh N 4.6 mph7.4 kmh 29.40 in995.6 mb - 0.00 in0.0 mm 0.00 in0.0 mm
04:25 AM 25.2°F-3.8°C 21.6°F-5.8°C 86% 4.6 mph NW7.4 kmh NW 3.5 mph5.6 kmh 29.40 in995.6 mb - 0.00 in0.0 mm 0.00 in0.0 mm
04:30 AM 25.2°F-3.8°C 21.6°F-5.8°C 86% 4.6 mph NNW7.4 kmh NNW 5.8 mph9.3 kmh 29.41 in995.9 mb - 0.00 in0.0 mm 0.00 in0.0 mm
04:35 AM 25.3°F-3.7°C 21.7°F-5.7°C 86% 4.6 mph NNW7.4 kmh NNW 3.5 mph5.6 kmh 29.41 in995.9 mb - 0.00 in0.0 mm 0.00 in0.0 mm
04:40 AM 25.2°F-3.8°C 21.6°F-5.8°C 86% 4.6 mph NW7.4 kmh NW 5.8 mph9.3 kmh 29.41 in995.9 mb - 0.00 in0.0 mm 0.00 in0.0 mm
04:45 AM 25.2°F-3.8°C 21.6°F-5.8°C 86% 4.6 mph NNW7.4 kmh NNW 5.8 mph9.3 kmh 29.40 in995.6 mb - 0.00 in0.0 mm 0.00 in0.0 mm
04:50 AM 25.2°F-3.8°C 21.6°F-5.8°C 86% 4.6 mph N7.4 kmh N 6.9 mph11.1 kmh 29.40 in995.6 mb - 0.00 in0.0 mm 0.00 in0.0 mm
04:55 AM 25.2°F-3.8°C 21.6°F-5.8°C 86% 5.8 mph NNW9.3 kmh NNW 6.9 mph11.1 kmh 29.40 in995.6 mb - 0.00 in0.0 mm 0.00 in0.0 mm
05:00 AM 25.2°F-3.8°C 21.6°F-5.8°C 86% 3.5 mph NNW5.6 kmh NNW 5.8 mph9.3 kmh 29.40 in995.6 mb - 0.00 in0.0 mm 0.00 in0.0 mm
05:10 AM 25.2°F-3.8°C 21.6°F-5.8°C 86% 4.6 mph NW7.4 kmh NW 6.9 mph11.1 kmh 29.40 in995.6 mb - 0.00 in0.0 mm 0.00 in0.0 mm
05:15 AM 25.2°F-3.8°C 21.6°F-5.8°C 86% 3.5 mph WNW5.6 kmh WNW 3.5 mph5.6 kmh 29.40 in995.6 mb - 0.00 in0.0 mm 0.00 in0.0 mm
05:20 AM 25.2°F-3.8°C 21.6°F-5.8°C 86% 5.8 mph NNW9.3 kmh NNW 8.1 mph13.0 kmh 29.40 in995.6 mb - 0.00 in0.0 mm 0.00 in0.0 mm
05:25 AM 25.2°F-3.8°C 21.6°F-5.8°C 86% 5.8 mph NNE9.3 kmh NNE 5.8 mph9.3 kmh 29.40 in995.6 mb - 0.00 in0.0 mm 0.00 in0.0 mm
05:30 AM 25.2°F-3.8°C 21.6°F-5.8°C 86% 4.6 mph NNW7.4 kmh NNW 5.8 mph9.3 kmh 29.40 in995.6 mb - 0.00 in0.0 mm 0.00 in0.0 mm
05:35 AM 25.2°F-3.8°C 21.6°F-5.8°C 86% 4.6 mph N7.4 kmh N 5.8 mph9.3 kmh 29.40 in995.6 mb - 0.00 in0.0 mm 0.00 in0.0 mm
05:40 AM 25.2°F-3.8°C 21.0°F-6.1°C 84% 5.8 mph NNW9.3 kmh NNW 5.8 mph9.3 kmh 29.40 in995.6 mb - 0.00 in0.0 mm 0.00 in0.0 mm
05:45 AM 25.2°F-3.8°C 21.0°F-6.1°C 84% 4.6 mph NW7.4 kmh NW 3.5 mph5.6 kmh 29.40 in995.6 mb - 0.00 in0.0 mm 0.00 in0.0 mm
05:50 AM 25.0°F-3.9°C 20.8°F-6.2°C 84% 3.5 mph NNW5.6 kmh NNW 4.6 mph7.4 kmh 29.40 in995.6 mb - 0.00 in0.0 mm 0.00 in0.0 mm
05:55 AM 25.0°F-3.9°C 20.8°F-6.2°C 84% 4.6 mph NNW7.4 kmh NNW 5.8 mph9.3 kmh 29.40 in995.6 mb - 0.00 in0.0 mm 0.00 in0.0 mm
06:00 AM 25.0°F-3.9°C 20.8°F-6.2°C 84% 5.8 mph NNW9.3 kmh NNW 5.8 mph9.3 kmh 29.42 in996.3 mb - 0.00 in0.0 mm 0.00 in0.0 mm
06:10 AM 25.0°F-3.9°C 20.8°F-6.2°C 84% 5.8 mph NNW9.3 kmh NNW 6.9 mph11.1 kmh 29.42 in996.3 mb - 0.00 in0.0 mm 0.00 in0.0 mm
06:15 AM 25.1°F-3.8°C 20.9°F-6.2°C 84% 5.8 mph NNW9.3 kmh NNW 5.8 mph9.3 kmh 29.41 in995.9 mb - 0.00 in0.0 mm 0.00 in0.0 mm
06:20 AM 25.0°F-3.9°C 20.8°F-6.2°C 84% 5.8 mph NNW9.3 kmh NNW 5.8 mph9.3 kmh 29.41 in995.9 mb - 0.00 in0.0 mm 0.00 in0.0 mm
06:25 AM 25.0°F-3.9°C 20.8°F-6.2°C 84% 5.8 mph NNW9.3 kmh NNW 6.9 mph11.1 kmh 29.41 in995.9 mb - 0.00 in0.0 mm 0.00 in0.0 mm
06:30 AM 25.0°F-3.9°C 20.8°F-6.2°C 84% 5.8 mph N9.3 kmh N 6.9 mph11.1 kmh 29.42 in996.3 mb - 0.00 in0.0 mm 0.00 in0.0 mm
06:35 AM 25.0°F-3.9°C 20.8°F-6.2°C 84% 4.6 mph NW7.4 kmh NW 5.8 mph9.3 kmh 29.42 in996.3 mb - 0.00 in0.0 mm 0.00 in0.0 mm
06:40 AM 25.0°F-3.9°C 20.8°F-6.2°C 84% 4.6 mph NNW7.4 kmh NNW 5.8 mph9.3 kmh 29.42 in996.3 mb - 0.00 in0.0 mm 0.00 in0.0 mm
06:45 AM 25.0°F-3.9°C 20.8°F-6.2°C 84% 6.9 mph NW11.1 kmh NW 5.8 mph9.3 kmh 29.42 in996.3 mb - 0.00 in0.0 mm 0.00 in0.0 mm
06:50 AM 24.8°F-4.0°C 20.7°F-6.3°C 84% 6.9 mph NNW11.1 kmh NNW 6.9 mph11.1 kmh 29.42 in996.3 mb - 0.00 in0.0 mm 0.00 in0.0 mm
06:55 AM 25.0°F-3.9°C 20.8°F-6.2°C 84% 8.1 mph NNW13.0 kmh NNW 8.1 mph13.0 kmh 29.42 in996.3 mb - 0.00 in0.0 mm 0.00 in0.0 mm
07:00 AM 25.0°F-3.9°C 20.8°F-6.2°C 84% 4.6 mph N7.4 kmh N 9.2 mph14.8 kmh 29.43 in996.6 mb - 0.00 in0.0 mm 0.00 in0.0 mm
07:10 AM 25.0°F-3.9°C 20.5°F-6.4°C 83% 5.8 mph NNW9.3 kmh NNW 5.8 mph9.3 kmh 29.43 in996.6 mb - 0.00 in0.0 mm 0.00 in0.0 mm
07:15 AM 25.0°F-3.9°C 20.5°F-6.4°C 83% 6.9 mph NNW11.1 kmh NNW 9.2 mph14.8 kmh 29.43 in996.6 mb - 0.00 in0.0 mm 0.00 in0.0 mm
07:20 AM 25.0°F-3.9°C 20.5°F-6.4°C 83% 4.6 mph NW7.4 kmh NW 8.1 mph13.0 kmh 29.43 in996.6 mb - 0.00 in0.0 mm 0.00 in0.0 mm
07:25 AM 25.0°F-3.9°C 20.5°F-6.4°C 83% 6.9 mph NNW11.1 kmh NNW 8.1 mph13.0 kmh 29.43 in996.6 mb - 0.00 in0.0 mm 0.00 in0.0 mm
07:30 AM 25.0°F-3.9°C 20.5°F-6.4°C 83% 8.1 mph NNW13.0 kmh NNW 9.2 mph14.8 kmh 29.43 in996.6 mb - 0.00 in0.0 mm 0.00 in0.0 mm
07:35 AM 25.0°F-3.9°C 20.5°F-6.4°C 83% 6.9 mph NNW11.1 kmh NNW 6.9 mph11.1 kmh 29.43 in996.6 mb - 0.00 in0.0 mm 0.00 in0.0 mm
07:40 AM 25.0°F-3.9°C 20.5°F-6.4°C 83% 4.6 mph NNW7.4 kmh NNW 5.8 mph9.3 kmh 29.43 in996.6 mb - 0.00 in0.0 mm 0.00 in0.0 mm
07:45 AM 25.2°F-3.8°C 20.7°F-6.3°C 83% 5.8 mph NNW9.3 kmh NNW 8.1 mph13.0 kmh 29.43 in996.6 mb - 0.00 in0.0 mm 0.00 in0.0 mm
07:50 AM 25.2°F-3.8°C 20.7°F-6.3°C 83% 3.5 mph NNW5.6 kmh NNW 6.9 mph11.1 kmh 29.43 in996.6 mb - 0.00 in0.0 mm 0.00 in0.0 mm
07:55 AM 25.2°F-3.8°C 20.7°F-6.3°C 83% 5.8 mph N9.3 kmh N 6.9 mph11.1 kmh 29.43 in996.6 mb - 0.00 in0.0 mm 0.00 in0.0 mm
08:00 AM 25.2°F-3.8°C 20.7°F-6.3°C 83% 4.6 mph NNE7.4 kmh NNE 4.6 mph7.4 kmh 29.44 in997.0 mb - 0.00 in0.0 mm 0.00 in0.0 mm
08:10 AM 25.3°F-3.7°C 20.9°F-6.2°C 83% 5.8 mph NW9.3 kmh NW 6.9 mph11.1 kmh 29.44 in997.0 mb - 0.00 in0.0 mm 0.00 in0.0 mm
08:15 AM 25.3°F-3.7°C 20.9°F-6.2°C 83% 5.8 mph NNE9.3 kmh NNE 8.1 mph13.0 kmh 29.44 in997.0 mb - 0.00 in0.0 mm 0.00 in0.0 mm
08:20 AM 25.3°F-3.7°C 20.9°F-6.2°C 83% 4.6 mph NNW7.4 kmh NNW 4.6 mph7.4 kmh 29.44 in997.0 mb - 0.00 in0.0 mm 0.00 in0.0 mm
08:25 AM 25.3°F-3.7°C 20.9°F-6.2°C 83% 3.5 mph N5.6 kmh N 4.6 mph7.4 kmh 29.44 in997.0 mb - 0.00 in0.0 mm 0.00 in0.0 mm
08:30 AM 25.5°F-3.6°C 21.1°F-6.1°C 83% 3.5 mph ENE5.6 kmh ENE 4.6 mph7.4 kmh 29.44 in997.0 mb - 0.00 in0.0 mm 0.00 in0.0 mm
08:35 AM 25.5°F-3.6°C 20.8°F-6.2°C 82% 5.8 mph N9.3 kmh N 8.1 mph13.0 kmh 29.44 in997.0 mb - 0.00 in0.0 mm 0.00 in0.0 mm
08:40 AM 25.5°F-3.6°C 20.8°F-6.2°C 82% 5.8 mph NNW9.3 kmh NNW 4.6 mph7.4 kmh 29.44 in997.0 mb - 0.00 in0.0 mm 0.00 in0.0 mm
08:45 AM 25.7°F-3.5°C 21.0°F-6.1°C 82% 6.9 mph NNW11.1 kmh NNW 10.4 mph16.7 kmh 29.44 in997.0 mb - 0.00 in0.0 mm 0.00 in0.0 mm
08:50 AM 25.7°F-3.5°C 21.0°F-6.1°C 82% 5.8 mph NW9.3 kmh NW 5.8 mph9.3 kmh 29.44 in997.0 mb - 0.00 in0.0 mm 0.00 in0.0 mm
08:55 AM 25.7°F-3.5°C 20.7°F-6.3°C 81% 5.8 mph NW9.3 kmh NW 6.9 mph11.1 kmh 29.44 in997.0 mb - 0.00 in0.0 mm 0.00 in0.0 mm
09:00 AM 25.7°F-3.5°C 20.7°F-6.3°C 81% 4.6 mph N7.4 kmh N 6.9 mph11.1 kmh 29.44 in997.0 mb - 0.00 in0.0 mm 0.00 in0.0 mm
09:10 AM 25.8°F-3.4°C 20.8°F-6.2°C 81% 4.6 mph NNW7.4 kmh NNW 4.6 mph7.4 kmh 29.44 in997.0 mb - 0.00 in0.0 mm 0.00 in0.0 mm
09:15 AM 25.9°F-3.4°C 20.9°F-6.2°C 81% 3.5 mph N5.6 kmh N 4.6 mph7.4 kmh 29.45 in997.3 mb - 0.00 in0.0 mm 0.00 in0.0 mm
09:20 AM 25.9°F-3.4°C 20.9°F-6.2°C 81% 3.5 mph N5.6 kmh N 3.5 mph5.6 kmh 29.45 in997.3 mb - 0.00 in0.0 mm 0.00 in0.0 mm
09:25 AM 25.9°F-3.4°C 20.9°F-6.2°C 81% 4.6 mph NNW7.4 kmh NNW 4.6 mph7.4 kmh 29.45 in997.3 mb - 0.00 in0.0 mm 0.00 in0.0 mm
09:30 AM 26.1°F-3.3°C 21.0°F-6.1°C 81% 5.8 mph N9.3 kmh N 8.1 mph13.0 kmh 29.46 in997.6 mb - 0.00 in0.0 mm 0.00 in0.0 mm
09:35 AM 26.1°F-3.3°C 21.0°F-6.1°C 81% 2.3 mph N3.7 kmh N 3.5 mph5.6 kmh 29.46 in997.6 mb - 0.00 in0.0 mm 0.00 in0.0 mm
09:40 AM 26.1°F-3.3°C 21.0°F-6.1°C 81% 4.6 mph NE7.4 kmh NE 5.8 mph9.3 kmh 29.46 in997.6 mb - 0.00 in0.0 mm 0.00 in0.0 mm
09:45 AM 26.1°F-3.3°C 21.0°F-6.1°C 81% 4.6 mph NNW7.4 kmh NNW 6.9 mph11.1 kmh 29.46 in997.6 mb - 0.00 in0.0 mm 0.00 in0.0 mm
09:50 AM 26.2°F-3.2°C 21.2°F-6.0°C 81% 5.8 mph NNW9.3 kmh NNW 5.8 mph9.3 kmh 29.46 in997.6 mb - 0.00 in0.0 mm 0.00 in0.0 mm
09:55 AM 26.2°F-3.2°C 21.2°F-6.0°C 81% 8.1 mph NNW13.0 kmh NNW 8.1 mph13.0 kmh 29.46 in997.6 mb - 0.00 in0.0 mm 0.00 in0.0 mm
10:00 AM 26.2°F-3.2°C 20.9°F-6.2°C 80% 5.8 mph NNW9.3 kmh NNW 5.8 mph9.3 kmh 29.46 in997.6 mb - 0.00 in0.0 mm 0.00 in0.0 mm
10:10 AM 26.6°F-3.0°C 21.6°F-5.8°C 81% 4.6 mph NNW7.4 kmh NNW 4.6 mph7.4 kmh 29.46 in997.6 mb - 0.00 in0.0 mm 0.00 in0.0 mm
10:15 AM 26.6°F-3.0°C 21.6°F-5.8°C 81% 3.5 mph NNE5.6 kmh NNE 4.6 mph7.4 kmh 29.47 in998.0 mb - 0.00 in0.0 mm 0.00 in0.0 mm
10:20 AM 26.4°F-3.1°C 21.4°F-5.9°C 81% 3.5 mph NNE5.6 kmh NNE 3.5 mph5.6 kmh 29.47 in998.0 mb - 0.00 in0.0 mm 0.00 in0.0 mm
10:25 AM 26.6°F-3.0°C 21.3°F-5.9°C 80% 5.8 mph N9.3 kmh N 8.1 mph13.0 kmh 29.47 in998.0 mb - 0.00 in0.0 mm 0.00 in0.0 mm
10:30 AM 26.6°F-3.0°C 21.0°F-6.1°C 79% 8.1 mph NNW13.0 kmh NNW 11.5 mph18.5 kmh 29.47 in998.0 mb - 0.00 in0.0 mm 0.00 in0.0 mm
10:35 AM 27.3°F-2.6°C 21.6°F-5.8°C 79% 9.2 mph NNW14.8 kmh NNW 9.2 mph14.8 kmh 29.47 in998.0 mb - 0.00 in0.0 mm 0.00 in0.0 mm
10:40 AM 27.7°F-2.4°C 21.7°F-5.7°C 78% 9.2 mph NNW14.8 kmh NNW 11.5 mph18.5 kmh 29.47 in998.0 mb - 0.00 in0.0 mm 0.00 in0.0 mm
10:45 AM 27.5°F-2.5°C 20.9°F-6.2°C 76% 6.9 mph NNW11.1 kmh NNW 8.1 mph13.0 kmh 29.45 in997.3 mb - 0.00 in0.0 mm 0.00 in0.0 mm
10:50 AM 27.7°F-2.4°C 21.1°F-6.1°C 76% 6.9 mph NNW11.1 kmh NNW 6.9 mph11.1 kmh 29.45 in997.3 mb - 0.00 in0.0 mm 0.00 in0.0 mm
10:55 AM 27.3°F-2.6°C 20.4°F-6.4°C 75% 9.2 mph NNW14.8 kmh NNW 10.4 mph16.7 kmh 29.45 in997.3 mb - 0.00 in0.0 mm 0.00 in0.0 mm
11:00 AM 27.3°F-2.6°C 20.4°F-6.4°C 75% 4.6 mph NNW7.4 kmh NNW 5.8 mph9.3 kmh 29.46 in997.6 mb - 0.00 in0.0 mm 0.00 in0.0 mm
11:10 AM 27.3°F-2.6°C 20.4°F-6.4°C 75% 6.9 mph NNW11.1 kmh NNW 5.8 mph9.3 kmh 29.46 in997.6 mb - 0.00 in0.0 mm 0.00 in0.0 mm
11:15 AM 27.5°F-2.5°C 20.6°F-6.3°C 75% 6.9 mph NNE11.1 kmh NNE 9.2 mph14.8 kmh 29.46 in997.6 mb - 0.00 in0.0 mm 0.00 in0.0 mm
11:20 AM 27.7°F-2.4°C 20.5°F-6.4°C 74% 5.8 mph N9.3 kmh N 6.9 mph11.1 kmh 29.46 in997.6 mb - 0.00 in0.0 mm 0.00 in0.0 mm
11:25 AM 27.7°F-2.4°C 20.5°F-6.4°C 74% 5.8 mph NW9.3 kmh NW 6.9 mph11.1 kmh 29.46 in997.6 mb - 0.00 in0.0 mm 0.00 in0.0 mm
11:30 AM 27.7°F-2.4°C 20.5°F-6.4°C 74% 6.9 mph NNW11.1 kmh NNW 5.8 mph9.3 kmh 29.46 in997.6 mb - 0.00 in0.0 mm 0.00 in0.0 mm
11:35 AM 27.9°F-2.3°C 21.0°F-6.1°C 75% 4.6 mph N7.4 kmh N 6.9 mph11.1 kmh 29.46 in997.6 mb - 0.00 in0.0 mm 0.00 in0.0 mm
11:40 AM 27.5°F-2.5°C 20.3°F-6.5°C 74% 4.6 mph NNE7.4 kmh NNE 5.8 mph9.3 kmh 29.46 in997.6 mb - 0.00 in0.0 mm 0.00 in0.0 mm
11:45 AM 27.7°F-2.4°C 20.8°F-6.2°C 75% 4.6 mph NNW7.4 kmh NNW 4.6 mph7.4 kmh 29.47 in998.0 mb - 0.00 in0.0 mm 0.00 in0.0 mm
11:50 AM 27.7°F-2.4°C 20.8°F-6.2°C 75% 5.8 mph NNW9.3 kmh NNW 6.9 mph11.1 kmh 29.47 in998.0 mb - 0.00 in0.0 mm 0.00 in0.0 mm
11:55 AM 27.7°F-2.4°C 20.8°F-6.2°C 75% 5.8 mph N9.3 kmh N 9.2 mph14.8 kmh 29.47 in998.0 mb - 0.00 in0.0 mm 0.00 in0.0 mm
12:00 PM 27.8°F-2.3°C 20.6°F-6.3°C 74% 5.8 mph NNW9.3 kmh NNW 8.1 mph13.0 kmh 29.46 in997.6 mb - 0.00 in0.0 mm 0.00 in0.0 mm
12:10 PM 28.1°F-2.2°C 20.9°F-6.2°C 74% 4.6 mph NE7.4 kmh NE 3.5 mph5.6 kmh 29.46 in997.6 mb - 0.00 in0.0 mm 0.00 in0.0 mm
12:15 PM 28.4°F-2.0°C 21.5°F-5.8°C 75% 4.6 mph NNE7.4 kmh NNE 6.9 mph11.1 kmh 29.46 in997.6 mb - 0.00 in0.0 mm 0.00 in0.0 mm
12:20 PM 28.4°F-2.0°C 21.5°F-5.8°C 75% 8.1 mph NW13.0 kmh NW 9.2 mph14.8 kmh 29.46 in997.6 mb - 0.00 in0.0 mm 0.00 in0.0 mm
12:25 PM 28.4°F-2.0°C 21.2°F-6.0°C 74% 6.9 mph NNW11.1 kmh NNW 8.1 mph13.0 kmh 29.46 in997.6 mb - 0.00 in0.0 mm 0.00 in0.0 mm
12:30 PM 28.9°F-1.7°C 22.0°F-5.6°C 75% 3.5 mph NNW5.6 kmh NNW 4.6 mph7.4 kmh 29.46 in997.6 mb - 0.00 in0.0 mm 0.00 in0.0 mm
12:35 PM 28.9°F-1.7°C 21.7°F-5.7°C 74% 5.8 mph NNE9.3 kmh NNE 8.1 mph13.0 kmh 29.46 in997.6 mb - 0.00 in0.0 mm 0.00 in0.0 mm
12:40 PM 28.9°F-1.7°C 21.7°F-5.7°C 74% 4.6 mph NNW7.4 kmh NNW 5.8 mph9.3 kmh 29.46 in997.6 mb - 0.00 in0.0 mm 0.00 in0.0 mm
12:45 PM 28.8°F-1.8°C 20.9°F-6.2°C 72% 8.1 mph NNE13.0 kmh NNE 10.4 mph16.7 kmh 29.46 in997.6 mb - 0.00 in0.0 mm 0.00 in0.0 mm
12:50 PM 28.6°F-1.9°C 20.4°F-6.4°C 71% 8.1 mph NW13.0 kmh NW 8.1 mph13.0 kmh 29.46 in997.6 mb - 0.00 in0.0 mm 0.00 in0.0 mm
12:55 PM 28.6°F-1.9°C 20.7°F-6.3°C 72% 5.8 mph NNW9.3 kmh NNW 5.8 mph9.3 kmh 29.46 in997.6 mb - 0.00 in0.0 mm 0.00 in0.0 mm
01:00 PM 28.7°F-1.8°C 20.9°F-6.2°C 72% 4.6 mph N7.4 kmh N 5.8 mph9.3 kmh 29.46 in997.6 mb - 0.00 in0.0 mm 0.00 in0.0 mm
01:10 PM 28.9°F-1.7°C 21.0°F-6.1°C 72% 5.8 mph NW9.3 kmh NW 5.8 mph9.3 kmh 29.46 in997.6 mb - 0.00 in0.0 mm 0.00 in0.0 mm
01:15 PM 28.8°F-1.8°C 20.9°F-6.2°C 72% 4.6 mph NNW7.4 kmh NNW 5.8 mph9.3 kmh 29.46 in997.6 mb - 0.00 in0.0 mm 0.00 in0.0 mm
01:20 PM 28.9°F-1.7°C 21.0°F-6.1°C 72% 8.1 mph NNW13.0 kmh NNW 10.4 mph16.7 kmh 29.46 in997.6 mb - 0.00 in0.0 mm 0.00 in0.0 mm
01:25 PM 29.1°F-1.6°C 21.2°F-6.0°C 72% 4.6 mph NNE7.4 kmh NNE 5.8 mph9.3 kmh 29.46 in997.6 mb - 0.00 in0.0 mm 0.00 in0.0 mm
01:30 PM 29.1°F-1.6°C 21.2°F-6.0°C 72% 5.8 mph NW9.3 kmh NW 8.1 mph13.0 kmh 29.45 in997.3 mb - 0.00 in0.0 mm 0.00 in0.0 mm
01:35 PM 28.8°F-1.8°C 20.6°F-6.3°C 71% 9.2 mph NNW14.8 kmh NNW 11.5 mph18.5 kmh 29.45 in997.3 mb - 0.00 in0.0 mm 0.00 in0.0 mm
01:40 PM 28.8°F-1.8°C 20.5°F-6.4°C 71% 6.9 mph 11.1 kmh 8.1 mph13.0 kmh 29.45 in997.3 mb - 0.00 in0.0 mm 0.00 in0.0 mm
01:45 PM 28.8°F-1.8°C 20.5°F-6.4°C 71% 4.6 mph NNE7.4 kmh NNE 5.8 mph9.3 kmh 29.45 in997.3 mb - 0.00 in0.0 mm 0.00 in0.0 mm
01:50 PM 28.8°F-1.8°C 20.9°F-6.2°C 72% 6.9 mph NNW11.1 kmh NNW 9.2 mph14.8 kmh 29.45 in997.3 mb - 0.00 in0.0 mm 0.00 in0.0 mm
01:55 PM 28.8°F-1.8°C 20.9°F-6.2°C 72% 6.9 mph NNE11.1 kmh NNE 8.1 mph13.0 kmh 29.45 in997.3 mb - 0.00 in0.0 mm 0.00 in0.0 mm
02:00 PM 28.7°F-1.8°C 20.8°F-6.2°C 72% 5.8 mph N9.3 kmh N 5.8 mph9.3 kmh 29.44 in997.0 mb - 0.00 in0.0 mm 0.00 in0.0 mm
02:10 PM 28.6°F-1.9°C 20.4°F-6.4°C 71% 4.6 mph NNE7.4 kmh NNE 4.6 mph7.4 kmh 29.44 in997.0 mb - 0.00 in0.0 mm 0.00 in0.0 mm
02:15 PM 28.8°F-1.8°C 20.5°F-6.4°C 71% 4.6 mph N7.4 kmh N 5.8 mph9.3 kmh 29.45 in997.3 mb - 0.00 in0.0 mm 0.00 in0.0 mm
02:20 PM 28.8°F-1.8°C 20.5°F-6.4°C 71% 4.6 mph NNE7.4 kmh NNE 6.9 mph11.1 kmh 29.45 in997.3 mb - 0.00 in0.0 mm 0.00 in0.0 mm
02:25 PM 28.6°F-1.9°C 20.0°F-6.7°C 70% 5.8 mph N9.3 kmh N 5.8 mph9.3 kmh 29.45 in997.3 mb - 0.00 in0.0 mm 0.00 in0.0 mm
02:30 PM 28.6°F-1.9°C 20.4°F-6.4°C 71% 8.1 mph NNW13.0 kmh NNW 10.4 mph16.7 kmh 29.45 in997.3 mb - 0.00 in0.0 mm 0.00 in0.0 mm
02:35 PM 28.6°F-1.9°C 20.0°F-6.7°C 70% 4.6 mph 7.4 kmh 6.9 mph11.1 kmh 29.45 in997.3 mb - 0.00 in0.0 mm 0.00 in0.0 mm
02:40 PM 28.6°F-1.9°C 20.4°F-6.4°C 71% 6.9 mph NNW11.1 kmh NNW 9.2 mph14.8 kmh 29.45 in997.3 mb - 0.00 in0.0 mm 0.00 in0.0 mm
02:45 PM 28.6°F-1.9°C 20.4°F-6.4°C 71% 5.8 mph N9.3 kmh N 8.1 mph13.0 kmh 29.45 in997.3 mb - 0.00 in0.0 mm 0.00 in0.0 mm
02:50 PM 28.6°F-1.9°C 20.4°F-6.4°C 71% 9.2 mph NNW14.8 kmh NNW 10.4 mph16.7 kmh 29.45 in997.3 mb - 0.00 in0.0 mm 0.00 in0.0 mm
02:55 PM 28.6°F-1.9°C 20.4°F-6.4°C 71% 8.1 mph NNW13.0 kmh NNW 11.5 mph18.5 kmh 29.45 in997.3 mb - 0.00 in0.0 mm 0.00 in0.0 mm
03:00 PM 28.6°F-1.9°C 20.7°F-6.3°C 72% 5.8 mph NE9.3 kmh NE 6.9 mph11.1 kmh 29.45 in997.3 mb - 0.00 in0.0 mm 0.00 in0.0 mm
03:10 PM 28.5°F-1.9°C 20.3°F-6.5°C 71% 6.9 mph N11.1 kmh N 10.4 mph16.7 kmh 29.45 in997.3 mb - 0.00 in0.0 mm 0.00 in0.0 mm
03:15 PM 28.6°F-1.9°C 20.7°F-6.3°C 72% 10.4 mph NNW16.7 kmh NNW 11.5 mph18.5 kmh 29.46 in997.6 mb - 0.00 in0.0 mm 0.00 in0.0 mm
03:20 PM 28.4°F-2.0°C 20.5°F-6.4°C 72% 5.8 mph N9.3 kmh N 6.9 mph11.1 kmh 29.46 in997.6 mb - 0.00 in0.0 mm 0.00 in0.0 mm
03:25 PM 28.4°F-2.0°C 20.5°F-6.4°C 72% 6.9 mph NNW11.1 kmh NNW 6.9 mph11.1 kmh 29.46 in997.6 mb - 0.00 in0.0 mm 0.00 in0.0 mm
03:30 PM 28.4°F-2.0°C 20.5°F-6.4°C 72% 9.2 mph NW14.8 kmh NW 10.4 mph16.7 kmh 29.46 in997.6 mb - 0.00 in0.0 mm 0.00 in0.0 mm
03:35 PM 28.4°F-2.0°C 20.5°F-6.4°C 72% 6.9 mph N11.1 kmh N 13.8 mph22.2 kmh 29.46 in997.6 mb - 0.00 in0.0 mm 0.00 in0.0 mm
03:40 PM 28.2°F-2.1°C 20.3°F-6.5°C 72% 8.1 mph NNW13.0 kmh NNW 10.4 mph16.7 kmh 29.46 in997.6 mb - 0.00 in0.0 mm 0.00 in0.0 mm
03:45 PM 28.2°F-2.1°C 20.3°F-6.5°C 72% 8.1 mph NNW13.0 kmh NNW 5.8 mph9.3 kmh 29.45 in997.3 mb - 0.00 in0.0 mm 0.00 in0.0 mm
03:50 PM 28.2°F-2.1°C 20.3°F-6.5°C 72% 8.1 mph N13.0 kmh N 9.2 mph14.8 kmh 29.45 in997.3 mb - 0.00 in0.0 mm 0.00 in0.0 mm
03:55 PM 28.2°F-2.1°C 20.3°F-6.5°C 72% 6.9 mph N11.1 kmh N 6.9 mph11.1 kmh 29.45 in997.3 mb - 0.00 in0.0 mm 0.00 in0.0 mm
04:00 PM 28.0°F-2.2°C 20.2°F-6.6°C 72% 8.1 mph NW13.0 kmh NW 8.1 mph13.0 kmh 29.46 in997.6 mb - 0.00 in0.0 mm 0.00 in0.0 mm
04:10 PM 28.0°F-2.2°C 20.2°F-6.6°C 72% 6.9 mph NNW11.1 kmh NNW 6.9 mph11.1 kmh 29.46 in997.6 mb - 0.00 in0.0 mm 0.00 in0.0 mm
04:15 PM 28.0°F-2.2°C 20.2°F-6.6°C 72% 6.9 mph NNW11.1 kmh NNW 6.9 mph11.1 kmh 29.46 in997.6 mb - 0.00 in0.0 mm 0.00 in0.0 mm
04:20 PM 27.9°F-2.3°C 20.3°F-6.5°C 73% 5.8 mph NW9.3 kmh NW 8.1 mph13.0 kmh 29.46 in997.6 mb - 0.00 in0.0 mm 0.00 in0.0 mm
04:25 PM 27.9°F-2.3°C 20.3°F-6.5°C 73% 4.6 mph NE7.4 kmh NE 5.8 mph9.3 kmh 29.46 in997.6 mb - 0.00 in0.0 mm 0.00 in0.0 mm
04:30 PM 27.9°F-2.3°C 20.3°F-6.5°C 73% 5.8 mph NNW9.3 kmh NNW 8.1 mph13.0 kmh 29.46 in997.6 mb - 0.00 in0.0 mm 0.00 in0.0 mm
04:35 PM 27.9°F-2.3°C 20.3°F-6.5°C 73% 5.8 mph NNW9.3 kmh NNW 8.1 mph13.0 kmh 29.46 in997.6 mb - 0.00 in0.0 mm 0.00 in0.0 mm
04:40 PM 27.9°F-2.3°C 20.3°F-6.5°C 73% 6.9 mph WNW11.1 kmh WNW 8.1 mph13.0 kmh 29.46 in997.6 mb - 0.00 in0.0 mm 0.00 in0.0 mm
04:45 PM 27.7°F-2.4°C 19.8°F-6.8°C 72% 6.9 mph N11.1 kmh N 8.1 mph13.0 kmh 29.46 in997.6 mb - 0.00 in0.0 mm 0.00 in0.0 mm
04:50 PM 27.7°F-2.4°C 20.2°F-6.6°C 73% 6.9 mph NNW11.1 kmh NNW 9.2 mph14.8 kmh 29.46 in997.6 mb - 0.00 in0.0 mm 0.00 in0.0 mm
04:55 PM 27.7°F-2.4°C 19.8°F-6.8°C 72% 5.8 mph NW9.3 kmh NW 11.5 mph18.5 kmh 29.46 in997.6 mb - 0.00 in0.0 mm 0.00 in0.0 mm
05:00 PM 27.7°F-2.4°C 19.8°F-6.8°C 72% 8.1 mph NNW13.0 kmh NNW 8.1 mph13.0 kmh 29.46 in997.6 mb - 0.00 in0.0 mm 0.00 in0.0 mm
05:10 PM 27.7°F-2.4°C 19.8°F-6.8°C 72% 6.9 mph NNW11.1 kmh NNW 4.6 mph7.4 kmh 29.46 in997.6 mb - 0.00 in0.0 mm 0.00 in0.0 mm
05:15 PM 27.7°F-2.4°C 19.8°F-6.8°C 72% 6.9 mph N11.1 kmh N 9.2 mph14.8 kmh 29.46 in997.6 mb - 0.00 in0.0 mm 0.00 in0.0 mm
05:20 PM 27.7°F-2.4°C 19.8°F-6.8°C 72% 5.8 mph NNE9.3 kmh NNE 5.8 mph9.3 kmh 29.46 in997.6 mb - 0.00 in0.0 mm 0.00 in0.0 mm
05:25 PM 27.7°F-2.4°C 19.5°F-6.9°C 71% 4.6 mph N7.4 kmh N 4.6 mph7.4 kmh 29.46 in997.6 mb - 0.00 in0.0 mm 0.00 in0.0 mm
05:30 PM 27.6°F-2.4°C 19.7°F-6.8°C 72% 5.8 mph NNW9.3 kmh NNW 8.1 mph13.0 kmh 29.46 in997.6 mb - 0.00 in0.0 mm 0.00 in0.0 mm
05:35 PM 27.5°F-2.5°C 19.7°F-6.8°C 72% 5.8 mph NNW9.3 kmh NNW 6.9 mph11.1 kmh 29.46 in997.6 mb - 0.00 in0.0 mm 0.00 in0.0 mm
05:40 PM 27.5°F-2.5°C 19.7°F-6.8°C 72% 5.8 mph NNW9.3 kmh NNW 8.1 mph13.0 kmh 29.46 in997.6 mb - 0.00 in0.0 mm 0.00 in0.0 mm
05:45 PM 27.5°F-2.5°C 19.3°F-7.1°C 71% 5.8 mph N9.3 kmh N 5.8 mph9.3 kmh 29.47 in998.0 mb - 0.00 in0.0 mm 0.00 in0.0 mm
05:50 PM 27.5°F-2.5°C 19.3°F-7.1°C 71% 6.9 mph NNW11.1 kmh NNW 11.5 mph18.5 kmh 29.47 in998.0 mb - 0.00 in0.0 mm 0.00 in0.0 mm
05:55 PM 27.5°F-2.5°C 19.3°F-7.1°C 71% 6.9 mph N11.1 kmh N 10.4 mph16.7 kmh 29.47 in998.0 mb - 0.00 in0.0 mm 0.00 in0.0 mm
06:00 PM 27.5°F-2.5°C 19.0°F-7.2°C 70% 6.9 mph N11.1 kmh N 9.2 mph14.8 kmh 29.46 in997.6 mb - 0.00 in0.0 mm 0.00 in0.0 mm
06:10 PM 27.5°F-2.5°C 18.7°F-7.4°C 69% 5.8 mph NNW9.3 kmh NNW 6.9 mph11.1 kmh 29.46 in997.6 mb - 0.00 in0.0 mm 0.00 in0.0 mm
06:15 PM 27.5°F-2.5°C 18.7°F-7.4°C 69% 8.1 mph NNW13.0 kmh NNW 10.4 mph16.7 kmh 29.47 in998.0 mb - 0.00 in0.0 mm 0.00 in0.0 mm
06:20 PM 27.5°F-2.5°C 18.7°F-7.4°C 69% 6.9 mph NNE11.1 kmh NNE 8.1 mph13.0 kmh 29.47 in998.0 mb - 0.00 in0.0 mm 0.00 in0.0 mm
06:25 PM 27.5°F-2.5°C 18.7°F-7.4°C 69% 6.9 mph NNW11.1 kmh NNW 8.1 mph13.0 kmh 29.47 in998.0 mb - 0.00 in0.0 mm 0.00 in0.0 mm
06:30 PM 27.5°F-2.5°C 18.7°F-7.4°C 69% 6.9 mph N11.1 kmh N 9.2 mph14.8 kmh 29.48 in998.3 mb - 0.00 in0.0 mm 0.00 in0.0 mm
06:35 PM 27.5°F-2.5°C 18.3°F-7.6°C 68% 8.1 mph NNW13.0 kmh NNW 6.9 mph11.1 kmh 29.48 in998.3 mb - 0.00 in0.0 mm 0.00 in0.0 mm
06:40 PM 27.5°F-2.5°C 18.7°F-7.4°C 69% 8.1 mph N13.0 kmh N 13.8 mph22.2 kmh 29.48 in998.3 mb - 0.00 in0.0 mm 0.00 in0.0 mm
06:45 PM 27.5°F-2.5°C 18.3°F-7.6°C 68% 8.1 mph NNW13.0 kmh NNW 12.7 mph20.4 kmh 29.47 in998.0 mb - 0.00 in0.0 mm 0.00 in0.0 mm
06:50 PM 27.5°F-2.5°C 18.3°F-7.6°C 68% 10.4 mph NNE16.7 kmh NNE 12.7 mph20.4 kmh 29.47 in998.0 mb - 0.00 in0.0 mm 0.00 in0.0 mm
06:55 PM 27.5°F-2.5°C 18.3°F-7.6°C 68% 8.1 mph N13.0 kmh N 8.1 mph13.0 kmh 29.47 in998.0 mb - 0.00 in0.0 mm 0.00 in0.0 mm
07:00 PM 27.5°F-2.5°C 18.3°F-7.6°C 68% 6.9 mph NE11.1 kmh NE 11.5 mph18.5 kmh 29.47 in998.0 mb - 0.00 in0.0 mm 0.00 in0.0 mm
07:10 PM 27.5°F-2.5°C 18.3°F-7.6°C 68% 6.9 mph NNW11.1 kmh NNW 8.1 mph13.0 kmh 29.47 in998.0 mb - 0.00 in0.0 mm 0.00 in0.0 mm
07:15 PM 27.5°F-2.5°C 18.3°F-7.6°C 68% 8.1 mph NNW13.0 kmh NNW 11.5 mph18.5 kmh 29.47 in998.0 mb - 0.00 in0.0 mm 0.00 in0.0 mm
07:20 PM 27.5°F-2.5°C 18.7°F-7.4°C 69% 6.9 mph NNW11.1 kmh NNW 11.5 mph18.5 kmh 29.47 in998.0 mb - 0.00 in0.0 mm 0.00 in0.0 mm
07:25 PM 27.5°F-2.5°C 18.3°F-7.6°C 68% 6.9 mph N11.1 kmh N 11.5 mph18.5 kmh 29.47 in998.0 mb - 0.00 in0.0 mm 0.00 in0.0 mm
07:30 PM 27.5°F-2.5°C 18.3°F-7.6°C 68% 8.1 mph NNW13.0 kmh NNW 8.1 mph13.0 kmh 29.46 in997.6 mb - 0.00 in0.0 mm 0.00 in0.0 mm
07:35 PM 27.3°F-2.6°C 18.1°F-7.7°C 68% 5.8 mph NNW9.3 kmh NNW 5.8 mph9.3 kmh 29.46 in997.6 mb - 0.00 in0.0 mm 0.00 in0.0 mm
07:40 PM 27.3°F-2.6°C 18.1°F-7.7°C 68% 5.8 mph NNW9.3 kmh NNW 6.9 mph11.1 kmh 29.46 in997.6 mb - 0.00 in0.0 mm 0.00 in0.0 mm
07:45 PM 27.5°F-2.5°C 18.3°F-7.6°C 68% 5.8 mph N9.3 kmh N 5.8 mph9.3 kmh 29.46 in997.6 mb - 0.00 in0.0 mm 0.00 in0.0 mm
07:50 PM 27.5°F-2.5°C 18.3°F-7.6°C 68% 5.8 mph N9.3 kmh N 8.1 mph13.0 kmh 29.46 in997.6 mb - 0.00 in0.0 mm 0.00 in0.0 mm
07:55 PM 27.5°F-2.5°C 18.0°F-7.8°C 67% 6.9 mph NNW11.1 kmh NNW 8.1 mph13.0 kmh 29.46 in997.6 mb - 0.00 in0.0 mm 0.00 in0.0 mm
08:00 PM 27.5°F-2.5°C 18.0°F-7.8°C 67% 6.9 mph NNE11.1 kmh NNE 9.2 mph14.8 kmh 29.48 in998.3 mb - 0.00 in0.0 mm 0.00 in0.0 mm
08:10 PM 27.5°F-2.5°C 18.0°F-7.8°C 67% 8.1 mph NNW13.0 kmh NNW 10.4 mph16.7 kmh 29.48 in998.3 mb - 0.00 in0.0 mm 0.00 in0.0 mm
08:15 PM 27.5°F-2.5°C 18.0°F-7.8°C 67% 6.9 mph N11.1 kmh N 9.2 mph14.8 kmh 29.48 in998.3 mb - 0.00 in0.0 mm 0.00 in0.0 mm
08:20 PM 27.5°F-2.5°C 18.0°F-7.8°C 67% 8.1 mph NE13.0 kmh NE 11.5 mph18.5 kmh 29.48 in998.3 mb - 0.00 in0.0 mm 0.00 in0.0 mm
08:25 PM 27.5°F-2.5°C 18.0°F-7.8°C 67% 9.2 mph NNW14.8 kmh NNW 11.5 mph18.5 kmh 29.48 in998.3 mb - 0.00 in0.0 mm 0.00 in0.0 mm
08:30 PM 27.7°F-2.4°C 18.1°F-7.7°C 67% 6.9 mph N11.1 kmh N 8.1 mph13.0 kmh 29.48 in998.3 mb - 0.00 in0.0 mm 0.00 in0.0 mm
08:35 PM 27.5°F-2.5°C 18.0°F-7.8°C 67% 8.1 mph NNE13.0 kmh NNE 10.4 mph16.7 kmh 29.48 in998.3 mb - 0.00 in0.0 mm 0.00 in0.0 mm
08:40 PM 27.5°F-2.5°C 18.0°F-7.8°C 67% 10.4 mph NNW16.7 kmh NNW 10.4 mph16.7 kmh 29.48 in998.3 mb - 0.00 in0.0 mm 0.00 in0.0 mm
08:45 PM 27.5°F-2.5°C 18.0°F-7.8°C 67% 6.9 mph N11.1 kmh N 9.2 mph14.8 kmh 29.48 in998.3 mb - 0.00 in0.0 mm 0.00 in0.0 mm
08:50 PM 27.5°F-2.5°C 18.0°F-7.8°C 67% 8.1 mph NNW13.0 kmh NNW 10.4 mph16.7 kmh 29.48 in998.3 mb - 0.00 in0.0 mm 0.00 in0.0 mm
08:55 PM 27.5°F-2.5°C 18.0°F-7.8°C 67% 8.1 mph NW13.0 kmh NW 9.2 mph14.8 kmh 29.48 in998.3 mb - 0.00 in0.0 mm 0.00 in0.0 mm
09:00 PM 27.5°F-2.5°C 18.0°F-7.8°C 67% 6.9 mph N11.1 kmh N 8.1 mph13.0 kmh 29.47 in998.0 mb - 0.00 in0.0 mm 0.00 in0.0 mm
09:10 PM 27.5°F-2.5°C 18.0°F-7.8°C 67% 6.9 mph NNW11.1 kmh NNW 6.9 mph11.1 kmh 29.47 in998.0 mb - 0.00 in0.0 mm 0.00 in0.0 mm
09:15 PM 27.5°F-2.5°C 18.0°F-7.8°C 67% 8.1 mph NNW13.0 kmh NNW 10.4 mph16.7 kmh 29.48 in998.3 mb - 0.00 in0.0 mm 0.00 in0.0 mm
09:20 PM 27.5°F-2.5°C 17.6°F-8.0°C 66% 9.2 mph NNW14.8 kmh NNW 9.2 mph14.8 kmh 29.48 in998.3 mb - 0.00 in0.0 mm 0.00 in0.0 mm
09:25 PM 27.5°F-2.5°C 17.6°F-8.0°C 66% 9.2 mph N14.8 kmh N 12.7 mph20.4 kmh 29.48 in998.3 mb - 0.00 in0.0 mm 0.00 in0.0 mm
09:30 PM 27.5°F-2.5°C 17.3°F-8.2°C 65% 8.1 mph N13.0 kmh N 11.5 mph18.5 kmh 29.48 in998.3 mb - 0.00 in0.0 mm 0.00 in0.0 mm
09:35 PM 27.5°F-2.5°C 17.3°F-8.2°C 65% 8.1 mph NW13.0 kmh NW 9.2 mph14.8 kmh 29.48 in998.3 mb - 0.00 in0.0 mm 0.00 in0.0 mm
09:40 PM 27.7°F-2.4°C 17.4°F-8.1°C 65% 9.2 mph N14.8 kmh N 11.5 mph18.5 kmh 29.48 in998.3 mb - 0.00 in0.0 mm 0.00 in0.0 mm
09:45 PM 27.7°F-2.4°C 17.4°F-8.1°C 65% 8.1 mph NNW13.0 kmh NNW 10.4 mph16.7 kmh 29.47 in998.0 mb - 0.00 in0.0 mm 0.00 in0.0 mm
09:50 PM 27.7°F-2.4°C 17.4°F-8.1°C 65% 9.2 mph NNW14.8 kmh NNW 11.5 mph18.5 kmh 29.47 in998.0 mb - 0.00 in0.0 mm 0.00 in0.0 mm
09:55 PM 27.5°F-2.5°C 17.3°F-8.2°C 65% 9.2 mph NE14.8 kmh NE 12.7 mph20.4 kmh 29.47 in998.0 mb - 0.00 in0.0 mm 0.00 in0.0 mm
10:00 PM 27.6°F-2.4°C 17.4°F-8.1°C 65% 5.8 mph N9.3 kmh N 6.9 mph11.1 kmh 29.47 in998.0 mb - 0.00 in0.0 mm 0.00 in0.0 mm
10:10 PM 27.5°F-2.5°C 17.6°F-8.0°C 66% 8.1 mph NNW13.0 kmh NNW 13.8 mph22.2 kmh 29.47 in998.0 mb - 0.00 in0.0 mm 0.00 in0.0 mm
10:15 PM 27.5°F-2.5°C 17.6°F-8.0°C 66% 8.1 mph NNW13.0 kmh NNW 10.4 mph16.7 kmh 29.48 in998.3 mb - 0.00 in0.0 mm 0.00 in0.0 mm
10:20 PM 27.5°F-2.5°C 17.3°F-8.2°C 65% 6.9 mph N11.1 kmh N 8.1 mph13.0 kmh 29.48 in998.3 mb - 0.00 in0.0 mm 0.00 in0.0 mm
10:25 PM 27.5°F-2.5°C 17.3°F-8.2°C 65% 8.1 mph NNW13.0 kmh NNW 9.2 mph14.8 kmh 29.48 in998.3 mb - 0.00 in0.0 mm 0.00 in0.0 mm
10:30 PM 27.5°F-2.5°C 17.3°F-8.2°C 65% 6.9 mph NNW11.1 kmh NNW 9.2 mph14.8 kmh 29.48 in998.3 mb - 0.00 in0.0 mm 0.00 in0.0 mm
10:35 PM 27.5°F-2.5°C 17.3°F-8.2°C 65% 5.8 mph NNW9.3 kmh NNW 6.9 mph11.1 kmh 29.48 in998.3 mb - 0.00 in0.0 mm 0.00 in0.0 mm
10:40 PM 27.5°F-2.5°C 17.3°F-8.2°C 65% 8.1 mph NW13.0 kmh NW 11.5 mph18.5 kmh 29.48 in998.3 mb - 0.00 in0.0 mm 0.00 in0.0 mm
10:45 PM 27.5°F-2.5°C 16.9°F-8.4°C 64% 9.2 mph NNW14.8 kmh NNW 10.4 mph16.7 kmh 29.47 in998.0 mb - 0.00 in0.0 mm 0.00 in0.0 mm
10:50 PM 27.4°F-2.6°C 17.1°F-8.3°C 65% 5.8 mph NW9.3 kmh NW 6.9 mph11.1 kmh 29.47 in998.0 mb - 0.00 in0.0 mm 0.00 in0.0 mm
10:55 PM 27.3°F-2.6°C 17.1°F-8.3°C 65% 6.9 mph NNW11.1 kmh NNW 9.2 mph14.8 kmh 29.47 in998.0 mb - 0.00 in0.0 mm 0.00 in0.0 mm
11:00 PM 27.3°F-2.6°C 17.1°F-8.3°C 65% 8.1 mph N13.0 kmh N 8.1 mph13.0 kmh 29.47 in998.0 mb - 0.00 in0.0 mm 0.00 in0.0 mm
11:10 PM 27.0°F-2.8°C 16.8°F-8.4°C 65% 6.9 mph NW11.1 kmh NW 6.9 mph11.1 kmh 29.47 in998.0 mb - 0.00 in0.0 mm 0.00 in0.0 mm
11:15 PM 27.0°F-2.8°C 17.1°F-8.3°C 66% 9.2 mph NNW14.8 kmh NNW 10.4 mph16.7 kmh 29.47 in998.0 mb - 0.00 in0.0 mm 0.00 in0.0 mm
11:20 PM 27.0°F-2.8°C 16.8°F-8.4°C 65% 9.2 mph NNW14.8 kmh NNW 12.7 mph20.4 kmh 29.47 in998.0 mb - 0.00 in0.0 mm 0.00 in0.0 mm
11:25 PM 26.8°F-2.9°C 16.6°F-8.6°C 65% 10.4 mph NNE16.7 kmh NNE 13.8 mph22.2 kmh 29.47 in998.0 mb - 0.00 in0.0 mm 0.00 in0.0 mm
11:30 PM 26.8°F-2.9°C 16.6°F-8.6°C 65% 8.1 mph NNW13.0 kmh NNW 12.7 mph20.4 kmh 29.47 in998.0 mb - 0.00 in0.0 mm 0.00 in0.0 mm
11:35 PM 26.6°F-3.0°C 16.4°F-8.7°C 65% 8.1 mph NW13.0 kmh NW 8.1 mph13.0 kmh 29.47 in998.0 mb - 0.00 in0.0 mm 0.00 in0.0 mm
11:40 PM 26.6°F-3.0°C 16.4°F-8.7°C 65% 8.1 mph NW13.0 kmh NW 12.7 mph20.4 kmh 29.47 in998.0 mb - 0.00 in0.0 mm 0.00 in0.0 mm
11:45 PM 26.4°F-3.1°C 16.2°F-8.8°C 65% 9.2 mph NW14.8 kmh NW 9.2 mph14.8 kmh 29.47 in998.0 mb - 0.00 in0.0 mm 0.00 in0.0 mm
11:50 PM 26.4°F-3.1°C 15.9°F-8.9°C 64% 10.4 mph NNW16.7 kmh NNW 12.7 mph20.4 kmh 29.47 in998.0 mb - 0.00 in0.0 mm 0.00 in0.0 mm
11:55 PM 26.3°F-3.2°C 15.8°F-9.0°C 64% 6.9 mph NNW11.1 kmh NNW 5.8 mph9.3 kmh 29.47 in998.0 mb - 0.00 in0.0 mm 0.00 in0.0 mm